sensor_id;sensor_type;location;lat;lon;timestamp;temperature;humidity
43049;DHT22;28673;44.412;11.918;2023-09-12T00:02:24;21.00;95.20
43049;DHT22;28673;44.412;11.918;2023-09-12T00:04:50;21.00;95.00
43049;DHT22;28673;44.412;11.918;2023-09-12T00:07:16;20.90;95.00
43049;DHT22;28673;44.412;11.918;2023-09-12T00:09:42;20.90;95.00
43049;DHT22;28673;44.412;11.918;2023-09-12T00:12:08;20.90;95.00
43049;DHT22;28673;44.412;11.918;2023-09-12T00:14:34;20.90;95.10
43049;DHT22;28673;44.412;11.918;2023-09-12T00:17:00;20.90;95.10
43049;DHT22;28673;44.412;11.918;2023-09-12T00:19:26;20.90;95.10
43049;DHT22;28673;44.412;11.918;2023-09-12T00:21:51;20.80;95.10
43049;DHT22;28673;44.412;11.918;2023-09-12T00:24:18;20.80;95.10
43049;DHT22;28673;44.412;11.918;2023-09-12T00:26:44;20.80;95.10
43049;DHT22;28673;44.412;11.918;2023-09-12T00:29:10;20.80;95.10
43049;DHT22;28673;44.412;11.918;2023-09-12T00:31:36;20.70;95.10
43049;DHT22;28673;44.412;11.918;2023-09-12T00:34:02;20.70;95.20
43049;DHT22;28673;44.412;11.918;2023-09-12T00:36:28;20.70;95.20
43049;DHT22;28673;44.412;11.918;2023-09-12T00:38:54;20.70;95.30
43049;DHT22;28673;44.412;11.918;2023-09-12T00:41:19;20.60;95.30
43049;DHT22;28673;44.412;11.918;2023-09-12T00:43:45;20.60;95.30
43049;DHT22;28673;44.412;11.918;2023-09-12T00:46:14;20.60;95.30
43049;DHT22;28673;44.412;11.918;2023-09-12T00:48:43;20.60;95.30
43049;DHT22;28673;44.412;11.918;2023-09-12T00:51:10;20.60;95.30
43049;DHT22;28673;44.412;11.918;2023-09-12T00:53:36;20.60;95.30
43049;DHT22;28673;44.412;11.918;2023-09-12T00:56:02;20.50;95.30
43049;DHT22;28673;44.412;11.918;2023-09-12T00:58:28;20.50;95.30
43049;DHT22;28673;44.412;11.918;2023-09-12T01:00:55;20.50;95.30
43049;DHT22;28673;44.412;11.918;2023-09-12T01:03:22;20.40;95.30
43049;DHT22;28673;44.412;11.918;2023-09-12T01:05:48;20.40;95.40
43049;DHT22;28673;44.412;11.918;2023-09-12T01:08:14;20.40;95.50
43049;DHT22;28673;44.412;11.918;2023-09-12T01:10:40;20.30;95.50
43049;DHT22;28673;44.412;11.918;2023-09-12T01:13:13;20.30;95.50
43049;DHT22;28673;44.412;11.918;2023-09-12T01:15:40;20.30;95.50
43049;DHT22;28673;44.412;11.918;2023-09-12T01:18:06;20.30;95.50
43049;DHT22;28673;44.412;11.918;2023-09-12T01:20:34;20.30;95.50
43049;DHT22;28673;44.412;11.918;2023-09-12T01:28:34;20.20;95.60
43049;DHT22;28673;44.412;11.918;2023-09-12T01:31:03;20.10;95.50
43049;DHT22;28673;44.412;11.918;2023-09-12T01:33:29;20.10;95.60
43049;DHT22;28673;44.412;11.918;2023-09-12T01:35:55;20.10;95.70
43049;DHT22;28673;44.412;11.918;2023-09-12T01:38:22;20.10;95.80
43049;DHT22;28673;44.412;11.918;2023-09-12T01:40:52;20.00;95.80
43049;DHT22;28673;44.412;11.918;2023-09-12T01:43:21;20.00;95.80
43049;DHT22;28673;44.412;11.918;2023-09-12T01:45:50;20.00;95.80
43049;DHT22;28673;44.412;11.918;2023-09-12T01:48:20;20.00;95.70
43049;DHT22;28673;44.412;11.918;2023-09-12T01:50:48;20.00;95.70
43049;DHT22;28673;44.412;11.918;2023-09-12T01:53:15;20.00;95.70
43049;DHT22;28673;44.412;11.918;2023-09-12T01:55:45;19.90;95.70
43049;DHT22;28673;44.412;11.918;2023-09-12T01:58:13;19.90;95.80
43049;DHT22;28673;44.412;11.918;2023-09-12T02:00:40;19.80;95.80
43049;DHT22;28673;44.412;11.918;2023-09-12T02:03:06;19.80;95.90
43049;DHT22;28673;44.412;11.918;2023-09-12T02:05:32;19.70;95.90
43049;DHT22;28673;44.412;11.918;2023-09-12T02:07:58;19.70;96.00
43049;DHT22;28673;44.412;11.918;2023-09-12T02:10:27;19.70;96.00
43049;DHT22;28673;44.412;11.918;2023-09-12T02:12:53;19.70;96.00
43049;DHT22;28673;44.412;11.918;2023-09-12T02:15:19;19.70;96.00
43049;DHT22;28673;44.412;11.918;2023-09-12T02:17:45;19.70;96.00
43049;DHT22;28673;44.412;11.918;2023-09-12T02:20:11;19.70;96.00
43049;DHT22;28673;44.412;11.918;2023-09-12T02:22:37;19.60;96.00
43049;DHT22;28673;44.412;11.918;2023-09-12T02:25:04;19.60;96.00
43049;DHT22;28673;44.412;11.918;2023-09-12T02:27:31;19.60;96.10
43049;DHT22;28673;44.412;11.918;2023-09-12T02:29:56;19.50;96.10
43049;DHT22;28673;44.412;11.918;2023-09-12T02:32:22;19.50;96.10
43049;DHT22;28673;44.412;11.918;2023-09-12T02:34:48;19.50;96.20
43049;DHT22;28673;44.412;11.918;2023-09-12T02:37:14;19.40;96.20
43049;DHT22;28673;44.412;11.918;2023-09-12T02:39:41;19.50;96.20
43049;DHT22;28673;44.412;11.918;2023-09-12T02:42:07;19.50;96.20
43049;DHT22;28673;44.412;11.918;2023-09-12T02:44:33;19.50;96.20
43049;DHT22;28673;44.412;11.918;2023-09-12T02:46:59;19.50;96.10
43049;DHT22;28673;44.412;11.918;2023-09-12T02:49:25;19.50;96.10
43049;DHT22;28673;44.412;11.918;2023-09-12T02:51:51;19.40;96.10
43049;DHT22;28673;44.412;11.918;2023-09-12T02:54:17;19.40;96.10
43049;DHT22;28673;44.412;11.918;2023-09-12T02:56:43;19.30;96.10
43049;DHT22;28673;44.412;11.918;2023-09-12T02:59:09;19.30;96.20
43049;DHT22;28673;44.412;11.918;2023-09-12T03:01:35;19.30;96.20
43049;DHT22;28673;44.412;11.918;2023-09-12T03:04:01;19.20;96.20
43049;DHT22;28673;44.412;11.918;2023-09-12T03:06:28;19.20;96.30
43049;DHT22;28673;44.412;11.918;2023-09-12T03:08:54;19.20;96.30
43049;DHT22;28673;44.412;11.918;2023-09-12T03:11:20;19.20;96.30
43049;DHT22;28673;44.412;11.918;2023-09-12T03:13:46;19.20;96.30
43049;DHT22;28673;44.412;11.918;2023-09-12T03:16:15;19.10;96.30
43049;DHT22;28673;44.412;11.918;2023-09-12T03:18:41;19.10;96.30
43049;DHT22;28673;44.412;11.918;2023-09-12T03:21:07;19.10;96.30
43049;DHT22;28673;44.412;11.918;2023-09-12T03:23:33;19.10;96.30
43049;DHT22;28673;44.412;11.918;2023-09-12T03:26:06;19.00;96.30
43049;DHT22;28673;44.412;11.918;2023-09-12T03:28:33;19.00;96.40
43049;DHT22;28673;44.412;11.918;2023-09-12T03:31:10;19.00;96.40
43049;DHT22;28673;44.412;11.918;2023-09-12T03:33:41;18.90;96.40
43049;DHT22;28673;44.412;11.918;2023-09-12T03:36:08;18.90;96.40
43049;DHT22;28673;44.412;11.918;2023-09-12T03:38:35;18.90;96.40
43049;DHT22;28673;44.412;11.918;2023-09-12T03:41:01;18.90;96.40
43049;DHT22;28673;44.412;11.918;2023-09-12T03:43:28;18.90;96.40
43049;DHT22;28673;44.412;11.918;2023-09-12T03:45:54;18.90;96.30
43049;DHT22;28673;44.412;11.918;2023-09-12T03:48:21;18.90;96.30
43049;DHT22;28673;44.412;11.918;2023-09-12T03:50:46;18.90;96.30
43049;DHT22;28673;44.412;11.918;2023-09-12T03:53:14;18.90;96.30
43049;DHT22;28673;44.412;11.918;2023-09-12T03:55:40;18.80;96.30
43049;DHT22;28673;44.412;11.918;2023-09-12T03:58:06;18.80;96.30
43049;DHT22;28673;44.412;11.918;2023-09-12T04:00:32;18.80;96.40
43049;DHT22;28673;44.412;11.918;2023-09-12T04:02:58;18.70;96.40
43049;DHT22;28673;44.412;11.918;2023-09-12T04:05:25;18.70;96.50
43049;DHT22;28673;44.412;11.918;2023-09-12T04:07:51;18.70;96.50
43049;DHT22;28673;44.412;11.918;2023-09-12T04:10:19;18.70;96.50
43049;DHT22;28673;44.412;11.918;2023-09-12T04:12:45;18.70;96.50
43049;DHT22;28673;44.412;11.918;2023-09-12T04:15:12;18.70;96.40
43049;DHT22;28673;44.412;11.918;2023-09-12T04:17:38;18.70;96.40
43049;DHT22;28673;44.412;11.918;2023-09-12T04:20:04;18.70;96.40
43049;DHT22;28673;44.412;11.918;2023-09-12T04:22:30;18.60;96.40
43049;DHT22;28673;44.412;11.918;2023-09-12T04:24:56;18.60;96.40
43049;DHT22;28673;44.412;11.918;2023-09-12T04:27:22;18.60;96.50
43049;DHT22;28673;44.412;11.918;2023-09-12T04:29:48;18.50;96.50
43049;DHT22;28673;44.412;11.918;2023-09-12T04:32:14;18.50;96.50
43049;DHT22;28673;44.412;11.918;2023-09-12T04:34:45;18.50;96.60
43049;DHT22;28673;44.412;11.918;2023-09-12T04:37:11;18.50;96.60
43049;DHT22;28673;44.412;11.918;2023-09-12T04:39:37;18.50;96.60
43049;DHT22;28673;44.412;11.918;2023-09-12T04:42:03;18.50;96.60
43049;DHT22;28673;44.412;11.918;2023-09-12T04:44:36;18.40;96.50
43049;DHT22;28673;44.412;11.918;2023-09-12T04:47:02;18.40;96.60
43049;DHT22;28673;44.412;11.918;2023-09-12T04:49:29;18.40;96.60
43049;DHT22;28673;44.412;11.918;2023-09-12T04:51:55;18.40;96.60
43049;DHT22;28673;44.412;11.918;2023-09-12T04:54:21;18.40;96.60
43049;DHT22;28673;44.412;11.918;2023-09-12T04:56:46;18.40;96.70
43049;DHT22;28673;44.412;11.918;2023-09-12T04:59:13;18.30;96.70
43049;DHT22;28673;44.412;11.918;2023-09-12T05:01:38;18.30;96.70
43049;DHT22;28673;44.412;11.918;2023-09-12T05:04:04;18.30;96.80
43049;DHT22;28673;44.412;11.918;2023-09-12T05:06:30;18.30;96.80
43049;DHT22;28673;44.412;11.918;2023-09-12T05:08:57;18.30;96.80
43049;DHT22;28673;44.412;11.918;2023-09-12T05:11:23;18.30;96.80
43049;DHT22;28673;44.412;11.918;2023-09-12T05:13:50;18.30;96.80
43049;DHT22;28673;44.412;11.918;2023-09-12T05:16:16;18.30;96.80
43049;DHT22;28673;44.412;11.918;2023-09-12T05:18:42;18.40;96.80
43049;DHT22;28673;44.412;11.918;2023-09-12T05:21:08;18.30;96.80
43049;DHT22;28673;44.412;11.918;2023-09-12T05:23:34;18.30;96.80
43049;DHT22;28673;44.412;11.918;2023-09-12T05:26:00;18.30;96.90
43049;DHT22;28673;44.412;11.918;2023-09-12T05:28:26;18.40;97.00
43049;DHT22;28673;44.412;11.918;2023-09-12T05:30:52;18.40;97.00
43049;DHT22;28673;44.412;11.918;2023-09-12T05:33:18;18.40;97.00
43049;DHT22;28673;44.412;11.918;2023-09-12T05:35:45;18.40;97.10
43049;DHT22;28673;44.412;11.918;2023-09-12T05:38:11;18.40;97.10
43049;DHT22;28673;44.412;11.918;2023-09-12T05:40:37;18.50;97.10
43049;DHT22;28673;44.412;11.918;2023-09-12T05:43:03;18.50;97.10
43049;DHT22;28673;44.412;11.918;2023-09-12T05:45:29;18.50;97.10
43049;DHT22;28673;44.412;11.918;2023-09-12T05:47:56;18.60;97.10
43049;DHT22;28673;44.412;11.918;2023-09-12T05:50:23;18.60;97.10
43049;DHT22;28673;44.412;11.918;2023-09-12T05:52:49;18.60;97.20
43049;DHT22;28673;44.412;11.918;2023-09-12T05:55:17;18.60;97.20
43049;DHT22;28673;44.412;11.918;2023-09-12T05:57:43;18.60;97.20
43049;DHT22;28673;44.412;11.918;2023-09-12T06:00:10;18.60;97.20
43049;DHT22;28673;44.412;11.918;2023-09-12T06:02:41;18.60;97.30
43049;DHT22;28673;44.412;11.918;2023-09-12T06:05:08;18.70;97.30
43049;DHT22;28673;44.412;11.918;2023-09-12T06:07:34;18.80;97.30
43049;DHT22;28673;44.412;11.918;2023-09-12T06:10:01;18.80;97.20
43049;DHT22;28673;44.412;11.918;2023-09-12T06:12:27;18.90;97.20
43049;DHT22;28673;44.412;11.918;2023-09-12T06:14:53;19.00;97.20
43049;DHT22;28673;44.412;11.918;2023-09-12T06:17:21;19.00;97.00
43049;DHT22;28673;44.412;11.918;2023-09-12T06:19:48;19.10;97.00
43049;DHT22;28673;44.412;11.918;2023-09-12T06:22:17;19.20;96.80
43049;DHT22;28673;44.412;11.918;2023-09-12T06:24:44;19.20;96.60
43049;DHT22;28673;44.412;11.918;2023-09-12T06:27:10;19.30;96.50
43049;DHT22;28673;44.412;11.918;2023-09-12T06:29:39;19.40;96.30
43049;DHT22;28673;44.412;11.918;2023-09-12T06:32:05;19.50;96.20
43049;DHT22;28673;44.412;11.918;2023-09-12T06:34:30;19.50;96.10
43049;DHT22;28673;44.412;11.918;2023-09-12T06:36:56;19.70;96.00
43049;DHT22;28673;44.412;11.918;2023-09-12T06:39:22;19.80;95.80
43049;DHT22;28673;44.412;11.918;2023-09-12T06:41:50;19.80;95.70
43049;DHT22;28673;44.412;11.918;2023-09-12T06:44:18;19.90;95.60
43049;DHT22;28673;44.412;11.918;2023-09-12T06:46:47;20.00;95.50
43049;DHT22;28673;44.412;11.918;2023-09-12T06:49:12;20.10;95.40
43049;DHT22;28673;44.412;11.918;2023-09-12T06:51:38;20.20;95.40
43049;DHT22;28673;44.412;11.918;2023-09-12T06:54:04;20.30;95.50
43049;DHT22;28673;44.412;11.918;2023-09-12T06:56:30;20.30;95.20
43049;DHT22;28673;44.412;11.918;2023-09-12T06:58:56;20.40;95.10
43049;DHT22;28673;44.412;11.918;2023-09-12T07:01:23;20.50;95.00
43049;DHT22;28673;44.412;11.918;2023-09-12T07:03:49;20.50;94.90
43049;DHT22;28673;44.412;11.918;2023-09-12T07:06:19;20.60;94.60
43049;DHT22;28673;44.412;11.918;2023-09-12T07:08:45;20.70;94.60
43049;DHT22;28673;44.412;11.918;2023-09-12T07:11:11;20.80;94.50
43049;DHT22;28673;44.412;11.918;2023-09-12T07:13:37;20.90;94.50
43049;DHT22;28673;44.412;11.918;2023-09-12T07:16:02;21.00;94.50
43049;DHT22;28673;44.412;11.918;2023-09-12T07:18:30;21.10;94.60
43049;DHT22;28673;44.412;11.918;2023-09-12T07:21:02;21.20;94.60
43049;DHT22;28673;44.412;11.918;2023-09-12T07:23:28;21.30;94.50
43049;DHT22;28673;44.412;11.918;2023-09-12T07:25:55;21.40;94.30
43049;DHT22;28673;44.412;11.918;2023-09-12T07:28:25;21.60;94.20
43049;DHT22;28673;44.412;11.918;2023-09-12T07:30:57;21.70;94.10
43049;DHT22;28673;44.412;11.918;2023-09-12T07:33:23;21.80;93.90
43049;DHT22;28673;44.412;11.918;2023-09-12T07:35:53;21.90;93.70
43049;DHT22;28673;44.412;11.918;2023-09-12T07:38:20;22.00;93.50
43049;DHT22;28673;44.412;11.918;2023-09-12T07:40:46;22.20;93.30
43049;DHT22;28673;44.412;11.918;2023-09-12T07:43:12;22.30;93.10
43049;DHT22;28673;44.412;11.918;2023-09-12T07:45:38;22.40;93.00
43049;DHT22;28673;44.412;11.918;2023-09-12T07:48:10;22.50;92.80
43049;DHT22;28673;44.412;11.918;2023-09-12T07:50:37;22.60;92.70
43049;DHT22;28673;44.412;11.918;2023-09-12T07:53:06;22.70;92.30
43049;DHT22;28673;44.412;11.918;2023-09-12T07:55:38;22.90;92.20
43049;DHT22;28673;44.412;11.918;2023-09-12T07:58:12;23.00;92.00
43049;DHT22;28673;44.412;11.918;2023-09-12T08:00:38;23.10;92.00
43049;DHT22;28673;44.412;11.918;2023-09-12T08:03:04;23.30;91.80
43049;DHT22;28673;44.412;11.918;2023-09-12T08:05:30;23.40;91.60
43049;DHT22;28673;44.412;11.918;2023-09-12T08:07:56;23.50;91.50
43049;DHT22;28673;44.412;11.918;2023-09-12T08:10:22;23.70;91.40
43049;DHT22;28673;44.412;11.918;2023-09-12T08:12:48;23.80;91.30
43049;DHT22;28673;44.412;11.918;2023-09-12T08:15:14;24.00;91.10
43049;DHT22;28673;44.412;11.918;2023-09-12T08:17:40;24.10;91.10
43049;DHT22;28673;44.412;11.918;2023-09-12T08:20:07;24.30;90.90
43049;DHT22;28673;44.412;11.918;2023-09-12T08:22:36;24.50;90.80
43049;DHT22;28673;44.412;11.918;2023-09-12T08:25:02;24.60;90.50
43049;DHT22;28673;44.412;11.918;2023-09-12T08:27:28;24.80;90.20
43049;DHT22;28673;44.412;11.918;2023-09-12T08:29:54;25.00;90.00
43049;DHT22;28673;44.412;11.918;2023-09-12T08:32:20;25.20;90.00
43049;DHT22;28673;44.412;11.918;2023-09-12T08:34:46;25.40;89.60
43049;DHT22;28673;44.412;11.918;2023-09-12T08:37:12;25.50;88.90
43049;DHT22;28673;44.412;11.918;2023-09-12T08:39:43;25.80;88.50
43049;DHT22;28673;44.412;11.918;2023-09-12T08:42:14;26.00;88.40
43049;DHT22;28673;44.412;11.918;2023-09-12T08:44:42;26.30;87.30
43049;DHT22;28673;44.412;11.918;2023-09-12T08:47:09;26.70;87.30
43049;DHT22;28673;44.412;11.918;2023-09-12T08:49:38;27.00;86.40
43049;DHT22;28673;44.412;11.918;2023-09-12T08:52:05;27.40;84.40
43049;DHT22;28673;44.412;11.918;2023-09-12T08:54:33;27.70;84.30
43049;DHT22;28673;44.412;11.918;2023-09-12T08:57:03;28.10;84.10
43049;DHT22;28673;44.412;11.918;2023-09-12T08:59:33;28.40;82.90
43049;DHT22;28673;44.412;11.918;2023-09-12T09:02:00;28.80;79.10
43049;DHT22;28673;44.412;11.918;2023-09-12T09:04:28;29.10;81.30
43049;DHT22;28673;44.412;11.918;2023-09-12T09:06:58;29.40;80.80
43049;DHT22;28673;44.412;11.918;2023-09-12T09:09:26;29.70;79.80
43049;DHT22;28673;44.412;11.918;2023-09-12T09:11:55;30.10;79.60
43049;DHT22;28673;44.412;11.918;2023-09-12T09:14:21;30.40;79.10
43049;DHT22;28673;44.412;11.918;2023-09-12T09:16:47;30.70;78.50
43049;DHT22;28673;44.412;11.918;2023-09-12T09:19:13;31.00;78.00
43049;DHT22;28673;44.412;11.918;2023-09-12T09:21:39;31.30;76.70
43049;DHT22;28673;44.412;11.918;2023-09-12T09:24:08;31.40;75.60
43049;DHT22;28673;44.412;11.918;2023-09-12T09:26:48;31.60;74.30
43049;DHT22;28673;44.412;11.918;2023-09-12T09:29:16;31.80;73.40
43049;DHT22;28673;44.412;11.918;2023-09-12T09:31:43;32.10;73.80
43049;DHT22;28673;44.412;11.918;2023-09-12T09:34:13;32.30;73.20
43049;DHT22;28673;44.412;11.918;2023-09-12T09:36:49;32.50;73.10
43049;DHT22;28673;44.412;11.918;2023-09-12T09:39:26;32.80;72.20
43049;DHT22;28673;44.412;11.918;2023-09-12T09:41:55;33.00;72.30
43049;DHT22;28673;44.412;11.918;2023-09-12T09:44:22;33.20;72.20
43049;DHT22;28673;44.412;11.918;2023-09-12T09:47:03;33.40;69.90
43049;DHT22;28673;44.412;11.918;2023-09-12T09:49:33;33.60;69.40
43049;DHT22;28673;44.412;11.918;2023-09-12T09:52:03;33.80;69.80
43049;DHT22;28673;44.412;11.918;2023-09-12T09:54:30;34.10;69.10
43049;DHT22;28673;44.412;11.918;2023-09-12T09:56:56;34.20;69.10
43049;DHT22;28673;44.412;11.918;2023-09-12T09:59:24;34.40;66.50
43049;DHT22;28673;44.412;11.918;2023-09-12T10:01:56;34.50;67.90
43049;DHT22;28673;44.412;11.918;2023-09-12T10:04:23;34.60;67.20
43049;DHT22;28673;44.412;11.918;2023-09-12T10:06:49;34.80;67.80
43049;DHT22;28673;44.412;11.918;2023-09-12T10:09:16;35.00;67.00
43049;DHT22;28673;44.412;11.918;2023-09-12T10:11:43;35.10;66.90
43049;DHT22;28673;44.412;11.918;2023-09-12T10:14:11;35.20;66.70
43049;DHT22;28673;44.412;11.918;2023-09-12T10:16:48;35.40;66.10
43049;DHT22;28673;44.412;11.918;2023-09-12T10:19:23;35.40;65.40
43049;DHT22;28673;44.412;11.918;2023-09-12T10:24:33;35.80;63.70
43049;DHT22;28673;44.412;11.918;2023-09-12T10:27:03;35.90;65.30
43049;DHT22;28673;44.412;11.918;2023-09-12T10:29:31;36.10;64.30
43049;DHT22;28673;44.412;11.918;2023-09-12T10:31:57;36.10;63.60
43049;DHT22;28673;44.412;11.918;2023-09-12T10:34:25;36.10;63.30
43049;DHT22;28673;44.412;11.918;2023-09-12T10:36:52;36.30;63.40
43049;DHT22;28673;44.412;11.918;2023-09-12T10:39:20;36.50;62.90
43049;DHT22;28673;44.412;11.918;2023-09-12T10:41:53;36.60;63.10
43049;DHT22;28673;44.412;11.918;2023-09-12T10:44:20;37.00;62.50
43049;DHT22;28673;44.412;11.918;2023-09-12T10:46:47;37.20;62.80
43049;DHT22;28673;44.412;11.918;2023-09-12T10:49:15;37.40;62.30
43049;DHT22;28673;44.412;11.918;2023-09-12T10:51:42;37.70;61.80
43049;DHT22;28673;44.412;11.918;2023-09-12T10:54:09;37.80;61.40
43049;DHT22;28673;44.412;11.918;2023-09-12T10:56:37;37.80;61.20
43049;DHT22;28673;44.412;11.918;2023-09-12T11:01:30;38.00;61.00
43049;DHT22;28673;44.412;11.918;2023-09-12T11:03:57;38.10;61.50
43049;DHT22;28673;44.412;11.918;2023-09-12T11:06:30;38.10;62.00
43049;DHT22;28673;44.412;11.918;2023-09-12T11:11:49;38.30;60.10
43049;DHT22;28673;44.412;11.918;2023-09-12T11:14:16;38.60;60.70
43049;DHT22;28673;44.412;11.918;2023-09-12T11:19:52;39.10;59.30
43049;DHT22;28673;44.412;11.918;2023-09-12T11:22:30;39.30;59.10
43049;DHT22;28673;44.412;11.918;2023-09-12T11:25:03;39.50;57.10
43049;DHT22;28673;44.412;11.918;2023-09-12T11:30:20;39.30;58.00
43049;DHT22;28673;44.412;11.918;2023-09-12T11:32:49;39.40;59.00
43049;DHT22;28673;44.412;11.918;2023-09-12T11:35:21;39.20;58.60
43049;DHT22;28673;44.412;11.918;2023-09-12T11:37:49;39.20;58.90
43049;DHT22;28673;44.412;11.918;2023-09-12T11:40:16;39.30;58.70
43049;DHT22;28673;44.412;11.918;2023-09-12T11:42:43;39.40;58.80
43049;DHT22;28673;44.412;11.918;2023-09-12T11:45:10;39.40;58.40
43049;DHT22;28673;44.412;11.918;2023-09-12T11:47:43;39.50;58.50
43049;DHT22;28673;44.412;11.918;2023-09-12T11:50:32;39.40;58.20
43049;DHT22;28673;44.412;11.918;2023-09-12T11:53:05;39.40;57.80
43049;DHT22;28673;44.412;11.918;2023-09-12T11:55:33;39.40;57.70
43049;DHT22;28673;44.412;11.918;2023-09-12T11:57:59;39.30;57.30
43049;DHT22;28673;44.412;11.918;2023-09-12T12:00:25;39.20;57.50
43049;DHT22;28673;44.412;11.918;2023-09-12T12:02:53;39.10;57.50
43049;DHT22;28673;44.412;11.918;2023-09-12T12:05:20;38.90;57.30
43049;DHT22;28673;44.412;11.918;2023-09-12T12:07:47;38.80;57.60
43049;DHT22;28673;44.412;11.918;2023-09-12T12:10:13;38.90;57.90
43049;DHT22;28673;44.412;11.918;2023-09-12T12:12:39;39.00;57.40
43049;DHT22;28673;44.412;11.918;2023-09-12T12:15:10;39.10;57.50
43049;DHT22;28673;44.412;11.918;2023-09-12T12:17:42;39.30;57.30
43049;DHT22;28673;44.412;11.918;2023-09-12T12:20:10;39.50;57.10
43049;DHT22;28673;44.412;11.918;2023-09-12T12:22:40;39.70;57.10
43049;DHT22;28673;44.412;11.918;2023-09-12T12:25:11;39.60;56.80
43049;DHT22;28673;44.412;11.918;2023-09-12T12:27:39;39.60;56.30
43049;DHT22;28673;44.412;11.918;2023-09-12T12:30:10;39.50;56.40
43049;DHT22;28673;44.412;11.918;2023-09-12T12:32:40;39.30;56.60
43049;DHT22;28673;44.412;11.918;2023-09-12T12:35:07;39.20;56.10
43049;DHT22;28673;44.412;11.918;2023-09-12T12:37:33;39.20;56.40
43049;DHT22;28673;44.412;11.918;2023-09-12T12:40:00;39.10;56.00
43049;DHT22;28673;44.412;11.918;2023-09-12T12:42:40;39.10;55.90
43049;DHT22;28673;44.412;11.918;2023-09-12T12:45:20;39.20;55.80
43049;DHT22;28673;44.412;11.918;2023-09-12T12:47:46;39.10;55.50
43049;DHT22;28673;44.412;11.918;2023-09-12T12:50:17;39.10;56.20
43049;DHT22;28673;44.412;11.918;2023-09-12T12:52:47;39.20;56.20
43049;DHT22;28673;44.412;11.918;2023-09-12T12:55:15;39.20;56.40
43049;DHT22;28673;44.412;11.918;2023-09-12T12:57:43;39.40;56.30
43049;DHT22;28673;44.412;11.918;2023-09-12T13:00:11;39.50;56.10
43049;DHT22;28673;44.412;11.918;2023-09-12T13:02:38;39.60;55.90
43049;DHT22;28673;44.412;11.918;2023-09-12T13:05:06;39.80;55.60
43049;DHT22;28673;44.412;11.918;2023-09-12T13:07:37;39.80;55.60
43049;DHT22;28673;44.412;11.918;2023-09-12T13:10:03;39.70;55.70
43049;DHT22;28673;44.412;11.918;2023-09-12T13:12:30;39.50;55.90
43049;DHT22;28673;44.412;11.918;2023-09-12T13:14:56;39.60;56.00
43049;DHT22;28673;44.412;11.918;2023-09-12T13:17:22;39.50;56.10
43049;DHT22;28673;44.412;11.918;2023-09-12T13:19:49;39.50;56.00
43049;DHT22;28673;44.412;11.918;2023-09-12T13:22:15;39.40;55.60
43049;DHT22;28673;44.412;11.918;2023-09-12T13:24:40;39.60;55.70
43049;DHT22;28673;44.412;11.918;2023-09-12T13:27:06;39.70;55.50
43049;DHT22;28673;44.412;11.918;2023-09-12T13:29:32;39.80;55.60
43049;DHT22;28673;44.412;11.918;2023-09-12T13:31:58;40.00;55.70
43049;DHT22;28673;44.412;11.918;2023-09-12T13:34:24;40.10;55.20
43049;DHT22;28673;44.412;11.918;2023-09-12T13:36:50;40.10;55.60
43049;DHT22;28673;44.412;11.918;2023-09-12T13:39:16;40.00;55.40
43049;DHT22;28673;44.412;11.918;2023-09-12T13:41:43;40.10;55.70
43049;DHT22;28673;44.412;11.918;2023-09-12T13:44:10;40.30;55.70
43049;DHT22;28673;44.412;11.918;2023-09-12T13:46:36;40.20;55.30
43049;DHT22;28673;44.412;11.918;2023-09-12T13:49:09;40.20;55.30
43049;DHT22;28673;44.412;11.918;2023-09-12T13:51:35;40.10;54.90
43049;DHT22;28673;44.412;11.918;2023-09-12T13:54:01;40.10;55.00
43049;DHT22;28673;44.412;11.918;2023-09-12T13:56:28;39.90;54.40
43049;DHT22;28673;44.412;11.918;2023-09-12T13:58:54;39.60;54.50
43049;DHT22;28673;44.412;11.918;2023-09-12T14:01:21;39.50;55.10
43049;DHT22;28673;44.412;11.918;2023-09-12T14:03:48;39.50;55.40
43049;DHT22;28673;44.412;11.918;2023-09-12T14:06:14;39.50;55.70
43049;DHT22;28673;44.412;11.918;2023-09-12T14:08:40;39.40;54.90
43049;DHT22;28673;44.412;11.918;2023-09-12T14:11:06;39.10;54.80
43049;DHT22;28673;44.412;11.918;2023-09-12T14:13:32;38.80;54.10
43049;DHT22;28673;44.412;11.918;2023-09-12T14:15:58;38.60;55.60
43049;DHT22;28673;44.412;11.918;2023-09-12T14:18:24;38.60;55.10
43049;DHT22;28673;44.412;11.918;2023-09-12T14:20:50;38.60;55.30
43049;DHT22;28673;44.412;11.918;2023-09-12T14:23:17;38.80;55.10
43049;DHT22;28673;44.412;11.918;2023-09-12T14:25:43;38.90;56.00
43049;DHT22;28673;44.412;11.918;2023-09-12T14:28:09;38.70;56.70
43049;DHT22;28673;44.412;11.918;2023-09-12T14:30:36;38.40;57.40
43049;DHT22;28673;44.412;11.918;2023-09-12T14:33:03;38.20;58.00
43049;DHT22;28673;44.412;11.918;2023-09-12T14:35:29;37.90;58.20
43049;DHT22;28673;44.412;11.918;2023-09-12T14:37:55;37.60;58.40
43049;DHT22;28673;44.412;11.918;2023-09-12T14:40:21;37.50;58.80
43049;DHT22;28673;44.412;11.918;2023-09-12T14:42:47;37.30;59.10
43049;DHT22;28673;44.412;11.918;2023-09-12T14:45:13;37.20;59.50
43049;DHT22;28673;44.412;11.918;2023-09-12T14:47:40;37.00;59.70
43049;DHT22;28673;44.412;11.918;2023-09-12T14:50:06;36.90;59.90
43049;DHT22;28673;44.412;11.918;2023-09-12T14:52:32;36.80;60.00
43049;DHT22;28673;44.412;11.918;2023-09-12T14:55:00;36.60;60.00
43049;DHT22;28673;44.412;11.918;2023-09-12T14:57:26;36.40;60.50
43049;DHT22;28673;44.412;11.918;2023-09-12T14:59:52;36.10;60.70
43049;DHT22;28673;44.412;11.918;2023-09-12T15:02:18;36.10;60.90
43049;DHT22;28673;44.412;11.918;2023-09-12T15:04:44;35.80;61.30
43049;DHT22;28673;44.412;11.918;2023-09-12T15:07:09;35.80;61.60
43049;DHT22;28673;44.412;11.918;2023-09-12T15:09:35;35.60;62.00
43049;DHT22;28673;44.412;11.918;2023-09-12T15:12:01;35.40;62.10
43049;DHT22;28673;44.412;11.918;2023-09-12T15:14:28;35.20;62.50
43049;DHT22;28673;44.412;11.918;2023-09-12T15:16:56;35.00;63.10
43049;DHT22;28673;44.412;11.918;2023-09-12T15:19:22;34.80;63.80
43049;DHT22;28673;44.412;11.918;2023-09-12T15:21:48;34.70;64.20
43049;DHT22;28673;44.412;11.918;2023-09-12T15:24:14;34.40;64.70
43049;DHT22;28673;44.412;11.918;2023-09-12T15:26:40;34.20;64.80
43049;DHT22;28673;44.412;11.918;2023-09-12T15:29:06;34.30;64.80
43049;DHT22;28673;44.412;11.918;2023-09-12T15:31:33;34.30;64.80
43049;DHT22;28673;44.412;11.918;2023-09-12T15:33:59;34.40;64.80
43049;DHT22;28673;44.412;11.918;2023-09-12T15:36:25;34.40;64.60